Nearby METAR Reports

 

PAEN - Kenai, Alaska, USA
Distance from station: ESE 2mi, 4km
Updated: Wed, 08-Apr-2020 11:53pm AKDT
Clear
Clear
 Wind from W
Wind: W 3 mph , 6 km/h
Temperature: 25°F , -4°C
Dew Point: 14°F , -10°C
Humidity: 63%
Barometer: 30.07 inHg , 1018.3 hPa
Clouds: Clear
Visibility: 10 miles , 16 km
2020/04/09 07:53 PAEN 090753Z AUTO 28003KT 10SM CLR M04/M10 A3007 RMK AO2 SLP186 T10391100 TSNO
PASX - Soldotna, Alaska, USA
Distance from station: SE 12mi, 19km
Updated: Wed, 08-Apr-2020 11:56pm AKDT
Clear
Clear
 Wind from SW
Wind: SW 5 mph , 7 km/h
Temperature: 27°F , -3°C
Wind Chill: 21°F , -6°C
Dew Point: 16°F , -9°C
Humidity: 64%
Barometer: 30.10 inHg , 1019.3 hPa
Clouds: Clear
Visibility: 10 miles , 16 km
2020/04/09 07:56 PASX 090756Z AUTO 22004KT 10SM CLR M03/M09 A3010 RMK AO2 SLP201 T10281094 FZRANO
 
PANC - Anchorage Intl, Alaska, USA
Distance from station: NE 59mi, 96km
Updated: Wed, 08-Apr-2020 11:53pm AKDT
Clear
Clear
 Wind from NNE
Wind: NNE 8 mph , 13 km/h
Temperature: 28°F , -2°C
Wind Chill: 20°F , -7°C
Dew Point: 7°F , -14°C
Humidity: 40%
Barometer: 30.04 inHg , 1017.3 hPa
Clouds: Clear
Visibility: 10 miles , 16 km
2020/04/09 07:53 PANC 090753Z 02007KT 350V050 10SM CLR M02/M14 A3004 RMK AO2 SLP174 T10171139 $
PALH - Anchorage/Lake H, Alaska, USA
Distance from station: NE 61mi, 99km
Updated: Wed, 08-Apr-2020 11:53pm AKDT
Clear
Clear
 Wind from NE
Wind: NE 8 mph , 13 km/h
Temperature: 28°F , -2°C
Wind Chill: 20°F , -7°C
Dew Point: 7°F , -14°C
Humidity: 40%
Barometer: 30.05 inHg , 1017.6 hPa
Clouds: Clear
Visibility: 10 miles , 16 km
2020/04/09 07:53 PALH 090753Z 04007KT 10SM CLR M02/M14 A3005 RMK AO2 SLP176 T10171139
 
PAHO - Homer, Alaska, USA
Distance from station: S 66mi, 106km
Updated: Wed, 08-Apr-2020 11:53pm AKDT
Clear
Clear
 Wind from W
Wind: W 13 mph , 20 km/h
Temperature: 30°F , -1°C
Wind Chill: 20°F , -7°C
Dew Point: 18°F , -8°C
Humidity: 59%
Barometer: 30.10 inHg , 1019.3 hPa
Clouds: Clear
Visibility: 10 miles , 16 km
2020/04/09 07:53 PAHO 090753Z AUTO 27011KT 10SM CLR M01/M08 A3010 RMK AO2 SLP195 T10061083 TSNO
PAMR - Anchorage/Merril, Alaska, USA
Distance from station: NE 66mi, 106km
Updated: Wed, 08-Apr-2020 11:53pm AKDT
Clear
Clear
 Wind from calm
Wind: Calm
Temperature: 28°F , -2°C
Dew Point: 12°F , -11°C
Humidity: 51%
Barometer: 30.04 inHg , 1017.3 hPa
Clouds: Clear
Visibility: 10 miles , 16 km
2020/04/09 07:53 PAMR 090753Z 00000KT 10SM CLR M02/M11 A3004 RMK AO2 SLP175 T10221111 $
 
PAED - Elmendorf Afb, Alaska, USA
Distance from station: NE 69mi, 110km
Updated: Wed, 08-Apr-2020 10:56pm AKDT
Clear
Clear
 Wind from NE
Wind: NE 5 mph , 7 km/h
Temperature: 27°F , -3°C
Wind Chill: 21°F , -6°C
Dew Point: 18°F , -8°C
Humidity: 69%
Barometer: 30.00 inHg , 1015.9 hPa
Clouds: Clear
Visibility: 10 miles , 16 km
2020/04/09 06:56 PAED 090656Z 04004KT 10SM CLR M03/M08 A3000 RMK AO2A SLP157 T10331084 $
PAWD - Seward, Alaska, USA
Distance from station: ESE 71mi, 115km
Updated: Sat, 04-Apr-2020 7:53am AKDT
NOT Current
Overcast
Overcast
 
Temperature: 36°F , 2°C
Dew Point: 27°F , -3°C
Humidity: 70%
Barometer: 30.04 inHg , 1017.3 hPa
Clouds: Overcast
Visibility: 10 miles , 16 km
Cloud details: Overcast 5000 ft
2020/04/04 15:53 PAWD 041553Z AUTO 10SM OVC050 02/M03 A3004 RMK AO2 SLP172 T00221028 TSNO $
 
PASC - Deadhorse, Alaska, USA
Distance from station: ENE 670mi, 1078km
Updated: Wed, 08-Apr-2020 11:53pm AKDT
Mostly cloudy
Mostly cloudy
 Wind from SSW
Wind: SSW 7 mph , 11 km/h
Temperature: -11°F , -24°C
Wind Chill: -26°F , -32°C
Dew Point: -17°F , -27°C
Humidity: 76%
Barometer: 29.96 inHg , 1014.6 hPa
Clouds: Mostly cloudy
Visibility: 10 miles , 16 km
Cloud details: Mostly cloudy 9500 ft
Mostly cloudy 21000 ft
2020/04/09 07:53 PASC 090753Z 21006KT 10SM BKN095 BKN210 M24/M27 A2996 RMK AO2 SLP149 T12441272 $
PAAD - Point Thomson, Alaska, USA
Distance from station: ENE 680mi, 1094km
Updated: Wed, 08-Apr-2020 11:55pm AKDT
Clear
Clear
 Wind from SW
Wind: SW 8 mph , 13 km/h
Temperature: -13°F , -25°C
Wind Chill: -30°F , -34°C
Dew Point: -17°F , -27°C
Humidity: 83%
Barometer: 29.97 inHg , 1014.9 hPa
Clouds: Clear
Visibility: 10 miles , 16 km
2020/04/09 07:55 PAAD 090755Z AUTO 23007KT 10SM CLR M25/M27 A2997 RMK AO2 T12501273


kenaipeople.com website

Dans Automotive

Lower Peninsula Power Sports

Freddies RoadHouse

Alaska Weather Net